sensor_id;sensor_type;location;lat;lon;timestamp;temperature;humidity
9466;DHT22;4771;48.726;9.006;2023-02-08T00:00:42;-1.10;99.90
9466;DHT22;4771;48.726;9.006;2023-02-08T00:03:09;-1.10;99.90
9466;DHT22;4771;48.726;9.006;2023-02-08T00:05:36;-1.30;99.90
9466;DHT22;4771;48.726;9.006;2023-02-08T00:08:03;-1.40;99.90
9466;DHT22;4771;48.726;9.006;2023-02-08T00:10:31;-1.50;99.90
9466;DHT22;4771;48.726;9.006;2023-02-08T00:12:58;-1.50;99.90
9466;DHT22;4771;48.726;9.006;2023-02-08T00:15:25;-1.50;99.90
9466;DHT22;4771;48.726;9.006;2023-02-08T00:17:52;-1.60;99.90
9466;DHT22;4771;48.726;9.006;2023-02-08T00:20:19;-1.60;99.90
9466;DHT22;4771;48.726;9.006;2023-02-08T00:22:46;-1.60;99.90
9466;DHT22;4771;48.726;9.006;2023-02-08T00:25:13;-1.50;99.90
9466;DHT22;4771;48.726;9.006;2023-02-08T00:27:41;-0.60;99.90
9466;DHT22;4771;48.726;9.006;2023-02-08T00:30:09;-1.30;99.90
9466;DHT22;4771;48.726;9.006;2023-02-08T00:32:35;-1.40;99.90
9466;DHT22;4771;48.726;9.006;2023-02-08T00:35:02;-1.30;99.90
9466;DHT22;4771;48.726;9.006;2023-02-08T00:37:29;-1.30;99.90
9466;DHT22;4771;48.726;9.006;2023-02-08T00:39:56;-1.30;99.90
9466;DHT22;4771;48.726;9.006;2023-02-08T00:42:24;-1.30;99.90
9466;DHT22;4771;48.726;9.006;2023-02-08T00:44:53;-1.40;99.90
9466;DHT22;4771;48.726;9.006;2023-02-08T00:47:20;-1.60;99.90
9466;DHT22;4771;48.726;9.006;2023-02-08T00:49:47;-1.60;99.90
9466;DHT22;4771;48.726;9.006;2023-02-08T00:52:13;-1.60;99.90
9466;DHT22;4771;48.726;9.006;2023-02-08T00:54:40;-1.50;99.90
9466;DHT22;4771;48.726;9.006;2023-02-08T00:57:07;-1.50;99.90
9466;DHT22;4771;48.726;9.006;2023-02-08T00:59:34;-1.50;99.90
9466;DHT22;4771;48.726;9.006;2023-02-08T01:02:03;-1.50;99.50
9466;DHT22;4771;48.726;9.006;2023-02-08T01:04:30;-1.40;99.90
9466;DHT22;4771;48.726;9.006;2023-02-08T01:06:57;-1.30;99.90
9466;DHT22;4771;48.726;9.006;2023-02-08T01:09:23;-1.30;99.90
9466;DHT22;4771;48.726;9.006;2023-02-08T01:11:51;-1.20;99.90
9466;DHT22;4771;48.726;9.006;2023-02-08T01:14:18;-1.20;99.90
9466;DHT22;4771;48.726;9.006;2023-02-08T01:16:45;-1.20;99.90
9466;DHT22;4771;48.726;9.006;2023-02-08T01:19:13;-1.30;99.90
9466;DHT22;4771;48.726;9.006;2023-02-08T01:21:41;-1.20;99.90
9466;DHT22;4771;48.726;9.006;2023-02-08T01:24:09;-1.20;99.90
9466;DHT22;4771;48.726;9.006;2023-02-08T01:26:36;-1.20;99.90
9466;DHT22;4771;48.726;9.006;2023-02-08T01:29:03;-1.20;99.90
9466;DHT22;4771;48.726;9.006;2023-02-08T01:31:32;-1.20;99.90
9466;DHT22;4771;48.726;9.006;2023-02-08T01:34:00;-1.30;99.90
9466;DHT22;4771;48.726;9.006;2023-02-08T01:36:29;-1.30;99.90
9466;DHT22;4771;48.726;9.006;2023-02-08T01:38:56;-1.30;99.90
9466;DHT22;4771;48.726;9.006;2023-02-08T01:41:25;-1.30;99.90
9466;DHT22;4771;48.726;9.006;2023-02-08T01:44:02;-1.40;99.90
9466;DHT22;4771;48.726;9.006;2023-02-08T01:46:30;-1.40;99.90
9466;DHT22;4771;48.726;9.006;2023-02-08T01:49:01;-1.30;99.90
9466;DHT22;4771;48.726;9.006;2023-02-08T01:51:32;-1.40;99.90
9466;DHT22;4771;48.726;9.006;2023-02-08T01:54:02;-1.40;99.90
9466;DHT22;4771;48.726;9.006;2023-02-08T01:56:32;-1.40;99.90
9466;DHT22;4771;48.726;9.006;2023-02-08T01:59:05;-1.50;99.90
9466;DHT22;4771;48.726;9.006;2023-02-08T02:01:34;-1.50;99.90
9466;DHT22;4771;48.726;9.006;2023-02-08T02:04:02;-1.60;99.90
9466;DHT22;4771;48.726;9.006;2023-02-08T02:06:33;-1.60;99.90
9466;DHT22;4771;48.726;9.006;2023-02-08T02:09:06;-1.50;99.90
9466;DHT22;4771;48.726;9.006;2023-02-08T02:11:36;-1.60;99.90
9466;DHT22;4771;48.726;9.006;2023-02-08T02:14:03;-1.60;99.90
9466;DHT22;4771;48.726;9.006;2023-02-08T02:16:31;-1.60;99.90
9466;DHT22;4771;48.726;9.006;2023-02-08T02:18:57;-1.70;99.90
9466;DHT22;4771;48.726;9.006;2023-02-08T02:21:37;-1.70;99.90
9466;DHT22;4771;48.726;9.006;2023-02-08T02:27:30;-1.70;99.90
9466;DHT22;4771;48.726;9.006;2023-02-08T02:36:14;-1.80;99.90
9466;DHT22;4771;48.726;9.006;2023-02-08T02:38:55;-1.80;99.90
9466;DHT22;4771;48.726;9.006;2023-02-08T02:41:35;-1.80;99.90
9466;DHT22;4771;48.726;9.006;2023-02-08T02:44:24;-1.80;99.70
9466;DHT22;4771;48.726;9.006;2023-02-08T02:47:01;-1.70;98.20
9466;DHT22;4771;48.726;9.006;2023-02-08T02:49:36;-0.60;98.60
9466;DHT22;4771;48.726;9.006;2023-02-08T02:52:06;-1.80;97.40
9466;DHT22;4771;48.726;9.006;2023-02-08T02:54:38;-1.80;97.40
9466;DHT22;4771;48.726;9.006;2023-02-08T02:57:09;-1.80;97.20
9466;DHT22;4771;48.726;9.006;2023-02-08T02:59:38;-1.80;96.80
9466;DHT22;4771;48.726;9.006;2023-02-08T03:02:05;-1.80;96.80
9466;DHT22;4771;48.726;9.006;2023-02-08T03:04:51;-1.90;96.50
9466;DHT22;4771;48.726;9.006;2023-02-08T03:07:36;-1.70;96.40
9466;DHT22;4771;48.726;9.006;2023-02-08T03:10:16;-1.80;95.50
9466;DHT22;4771;48.726;9.006;2023-02-08T03:12:55;-1.70;95.50
9466;DHT22;4771;48.726;9.006;2023-02-08T03:15:29;-1.70;95.20
9466;DHT22;4771;48.726;9.006;2023-02-08T03:18:04;-1.70;95.20
9466;DHT22;4771;48.726;9.006;2023-02-08T03:20:37;-1.70;95.10
9466;DHT22;4771;48.726;9.006;2023-02-08T03:23:10;-1.70;94.80
9466;DHT22;4771;48.726;9.006;2023-02-08T03:25:47;-1.70;94.40
9466;DHT22;4771;48.726;9.006;2023-02-08T03:28:20;-1.60;95.30
9466;DHT22;4771;48.726;9.006;2023-02-08T03:30:57;-1.60;94.40
9466;DHT22;4771;48.726;9.006;2023-02-08T03:33:30;-1.70;94.50
9466;DHT22;4771;48.726;9.006;2023-02-08T03:36:03;-1.60;95.40
9466;DHT22;4771;48.726;9.006;2023-02-08T03:38:34;-1.50;95.50
9466;DHT22;4771;48.726;9.006;2023-02-08T03:41:05;-1.60;94.90
9466;DHT22;4771;48.726;9.006;2023-02-08T03:43:37;-1.50;94.60
9466;DHT22;4771;48.726;9.006;2023-02-08T03:46:07;-1.50;95.30
9466;DHT22;4771;48.726;9.006;2023-02-08T03:48:38;-1.40;94.70
9466;DHT22;4771;48.726;9.006;2023-02-08T03:51:08;-1.50;95.20
9466;DHT22;4771;48.726;9.006;2023-02-08T03:53:36;-1.40;94.00
9466;DHT22;4771;48.726;9.006;2023-02-08T03:56:09;-1.20;94.90
9466;DHT22;4771;48.726;9.006;2023-02-08T03:58:41;-1.30;93.40
9466;DHT22;4771;48.726;9.006;2023-02-08T04:01:14;-1.40;92.90
9466;DHT22;4771;48.726;9.006;2023-02-08T04:03:44;-1.40;93.70
9466;DHT22;4771;48.726;9.006;2023-02-08T04:06:14;-1.40;93.50
9466;DHT22;4771;48.726;9.006;2023-02-08T04:08:41;-1.60;93.00
9466;DHT22;4771;48.726;9.006;2023-02-08T04:11:08;-1.60;94.00
9466;DHT22;4771;48.726;9.006;2023-02-08T04:13:35;-1.50;93.60
9466;DHT22;4771;48.726;9.006;2023-02-08T04:16:02;-1.50;94.00
9466;DHT22;4771;48.726;9.006;2023-02-08T04:18:29;-1.50;93.40
9466;DHT22;4771;48.726;9.006;2023-02-08T04:20:56;-1.60;93.30
9466;DHT22;4771;48.726;9.006;2023-02-08T04:23:24;-1.40;93.90
9466;DHT22;4771;48.726;9.006;2023-02-08T04:25:51;-1.40;95.30
9466;DHT22;4771;48.726;9.006;2023-02-08T04:28:18;-1.40;94.50
9466;DHT22;4771;48.726;9.006;2023-02-08T04:30:45;-1.40;94.30
9466;DHT22;4771;48.726;9.006;2023-02-08T04:33:12;-1.40;94.40
9466;DHT22;4771;48.726;9.006;2023-02-08T04:35:39;-1.30;93.10
9466;DHT22;4771;48.726;9.006;2023-02-08T04:38:06;-2.40;91.90
9466;DHT22;4771;48.726;9.006;2023-02-08T04:40:34;-1.60;92.30
9466;DHT22;4771;48.726;9.006;2023-02-08T04:43:01;-1.50;92.50
9466;DHT22;4771;48.726;9.006;2023-02-08T04:45:28;-1.50;91.90
9466;DHT22;4771;48.726;9.006;2023-02-08T04:47:56;-1.60;92.00
9466;DHT22;4771;48.726;9.006;2023-02-08T04:50:23;-1.50;92.80
9466;DHT22;4771;48.726;9.006;2023-02-08T04:52:50;-1.50;92.60
9466;DHT22;4771;48.726;9.006;2023-02-08T04:55:17;-1.50;92.80
9466;DHT22;4771;48.726;9.006;2023-02-08T04:57:45;-1.40;93.50
9466;DHT22;4771;48.726;9.006;2023-02-08T05:00:13;-1.40;93.40
9466;DHT22;4771;48.726;9.006;2023-02-08T05:02:40;-1.40;93.70
9466;DHT22;4771;48.726;9.006;2023-02-08T05:05:07;-1.40;92.80
9466;DHT22;4771;48.726;9.006;2023-02-08T05:07:34;-1.30;92.60
9466;DHT22;4771;48.726;9.006;2023-02-08T05:10:01;-1.40;92.80
9466;DHT22;4771;48.726;9.006;2023-02-08T05:12:28;-1.50;92.70
9466;DHT22;4771;48.726;9.006;2023-02-08T05:14:56;-1.50;93.70
9466;DHT22;4771;48.726;9.006;2023-02-08T05:17:23;-1.50;93.40
9466;DHT22;4771;48.726;9.006;2023-02-08T05:19:50;-1.40;93.90
9466;DHT22;4771;48.726;9.006;2023-02-08T05:22:16;-1.30;94.30
9466;DHT22;4771;48.726;9.006;2023-02-08T05:24:43;-1.30;93.30
9466;DHT22;4771;48.726;9.006;2023-02-08T05:27:10;-1.30;93.40
9466;DHT22;4771;48.726;9.006;2023-02-08T05:29:37;-1.40;94.00
9466;DHT22;4771;48.726;9.006;2023-02-08T05:32:05;-1.40;94.20
9466;DHT22;4771;48.726;9.006;2023-02-08T05:34:32;-1.40;93.10
9466;DHT22;4771;48.726;9.006;2023-02-08T05:36:59;-1.30;94.30
9466;DHT22;4771;48.726;9.006;2023-02-08T05:39:25;-1.30;93.50
9466;DHT22;4771;48.726;9.006;2023-02-08T05:41:52;-1.40;93.60
9466;DHT22;4771;48.726;9.006;2023-02-08T05:44:19;-1.50;93.40
9466;DHT22;4771;48.726;9.006;2023-02-08T05:46:46;-1.50;94.20
9466;DHT22;4771;48.726;9.006;2023-02-08T05:49:15;-1.50;93.80
9466;DHT22;4771;48.726;9.006;2023-02-08T05:51:41;-1.50;94.60
9466;DHT22;4771;48.726;9.006;2023-02-08T05:54:08;-1.50;94.80
9466;DHT22;4771;48.726;9.006;2023-02-08T05:56:35;-1.60;94.10
9466;DHT22;4771;48.726;9.006;2023-02-08T05:59:02;-1.60;95.00
9466;DHT22;4771;48.726;9.006;2023-02-08T06:01:30;-1.50;94.70
9466;DHT22;4771;48.726;9.006;2023-02-08T06:03:57;-1.50;94.70
9466;DHT22;4771;48.726;9.006;2023-02-08T06:06:25;-1.70;94.30
9466;DHT22;4771;48.726;9.006;2023-02-08T06:08:53;-1.60;95.10
9466;DHT22;4771;48.726;9.006;2023-02-08T06:11:20;-1.70;94.50
9466;DHT22;4771;48.726;9.006;2023-02-08T06:13:47;-1.50;95.50
9466;DHT22;4771;48.726;9.006;2023-02-08T06:16:14;-1.80;94.50
9466;DHT22;4771;48.726;9.006;2023-02-08T06:18:41;-1.70;95.10
9466;DHT22;4771;48.726;9.006;2023-02-08T06:21:08;-1.70;95.10
9466;DHT22;4771;48.726;9.006;2023-02-08T06:23:38;-1.60;94.60
9466;DHT22;4771;48.726;9.006;2023-02-08T06:26:05;-1.80;94.10
9466;DHT22;4771;48.726;9.006;2023-02-08T06:28:32;-2.00;93.80
9466;DHT22;4771;48.726;9.006;2023-02-08T06:30:59;-2.10;94.10
9466;DHT22;4771;48.726;9.006;2023-02-08T06:33:26;-2.30;94.40
9466;DHT22;4771;48.726;9.006;2023-02-08T06:35:53;-2.30;94.90
9466;DHT22;4771;48.726;9.006;2023-02-08T06:38:20;-2.30;94.80
9466;DHT22;4771;48.726;9.006;2023-02-08T06:40:49;-2.30;95.10
9466;DHT22;4771;48.726;9.006;2023-02-08T06:43:16;-2.20;95.60
9466;DHT22;4771;48.726;9.006;2023-02-08T06:45:43;-2.10;95.10
9466;DHT22;4771;48.726;9.006;2023-02-08T06:48:10;-2.10;93.80
9466;DHT22;4771;48.726;9.006;2023-02-08T06:50:37;-2.10;93.70
9466;DHT22;4771;48.726;9.006;2023-02-08T06:53:04;-2.10;94.20
9466;DHT22;4771;48.726;9.006;2023-02-08T06:55:31;-2.10;94.20
9466;DHT22;4771;48.726;9.006;2023-02-08T06:57:59;-2.20;93.70
9466;DHT22;4771;48.726;9.006;2023-02-08T07:00:26;-2.20;93.70
9466;DHT22;4771;48.726;9.006;2023-02-08T07:02:53;-2.30;94.00
9466;DHT22;4771;48.726;9.006;2023-02-08T07:05:20;-2.30;94.00
9466;DHT22;4771;48.726;9.006;2023-02-08T07:07:46;-2.40;93.70
9466;DHT22;4771;48.726;9.006;2023-02-08T07:10:14;-2.30;94.10
9466;DHT22;4771;48.726;9.006;2023-02-08T07:12:40;-2.40;93.50
9466;DHT22;4771;48.726;9.006;2023-02-08T07:15:09;-2.50;92.70
9466;DHT22;4771;48.726;9.006;2023-02-08T07:17:37;-2.50;92.90
9466;DHT22;4771;48.726;9.006;2023-02-08T07:20:05;-2.30;93.00
9466;DHT22;4771;48.726;9.006;2023-02-08T07:22:32;-2.40;92.20
9466;DHT22;4771;48.726;9.006;2023-02-08T07:24:59;-2.50;92.10
9466;DHT22;4771;48.726;9.006;2023-02-08T07:27:26;-2.50;91.50
9466;DHT22;4771;48.726;9.006;2023-02-08T07:29:52;-2.50;91.50
9466;DHT22;4771;48.726;9.006;2023-02-08T07:32:21;-2.30;91.90
9466;DHT22;4771;48.726;9.006;2023-02-08T07:34:47;-2.40;91.20
9466;DHT22;4771;48.726;9.006;2023-02-08T07:37:14;-2.30;90.60
9466;DHT22;4771;48.726;9.006;2023-02-08T07:39:41;-2.20;90.20
9466;DHT22;4771;48.726;9.006;2023-02-08T07:42:09;-2.10;89.50
9466;DHT22;4771;48.726;9.006;2023-02-08T07:44:37;-2.10;88.50
9466;DHT22;4771;48.726;9.006;2023-02-08T07:47:04;-2.10;88.30
9466;DHT22;4771;48.726;9.006;2023-02-08T07:49:32;-2.00;88.10
9466;DHT22;4771;48.726;9.006;2023-02-08T07:52:00;-2.10;87.40
9466;DHT22;4771;48.726;9.006;2023-02-08T07:54:27;-2.10;87.50
9466;DHT22;4771;48.726;9.006;2023-02-08T07:56:54;-1.90;88.20
9466;DHT22;4771;48.726;9.006;2023-02-08T07:59:21;-1.90;86.10
9466;DHT22;4771;48.726;9.006;2023-02-08T08:01:47;-1.80;85.90
9466;DHT22;4771;48.726;9.006;2023-02-08T08:04:14;-1.70;84.60
9466;DHT22;4771;48.726;9.006;2023-02-08T08:06:42;-1.80;83.70
9466;DHT22;4771;48.726;9.006;2023-02-08T08:09:11;-1.70;85.20
9466;DHT22;4771;48.726;9.006;2023-02-08T08:11:39;-1.60;86.20
9466;DHT22;4771;48.726;9.006;2023-02-08T08:14:06;-1.60;84.10
9466;DHT22;4771;48.726;9.006;2023-02-08T08:16:33;-1.50;84.70
9466;DHT22;4771;48.726;9.006;2023-02-08T08:19:00;-1.50;83.00
9466;DHT22;4771;48.726;9.006;2023-02-08T08:21:27;-1.40;84.30
9466;DHT22;4771;48.726;9.006;2023-02-08T08:23:55;-1.40;81.80
9466;DHT22;4771;48.726;9.006;2023-02-08T08:26:22;-1.20;81.70
9466;DHT22;4771;48.726;9.006;2023-02-08T08:28:49;-1.20;81.00
9466;DHT22;4771;48.726;9.006;2023-02-08T08:31:17;-1.10;79.80
9466;DHT22;4771;48.726;9.006;2023-02-08T08:33:44;-1.10;79.00
9466;DHT22;4771;48.726;9.006;2023-02-08T08:36:11;-1.00;78.10
9466;DHT22;4771;48.726;9.006;2023-02-08T08:38:38;-0.90;75.40
9466;DHT22;4771;48.726;9.006;2023-02-08T08:41:08;-0.80;77.20
9466;DHT22;4771;48.726;9.006;2023-02-08T08:43:35;-0.60;76.00
9466;DHT22;4771;48.726;9.006;2023-02-08T08:46:04;-0.40;74.10
9466;DHT22;4771;48.726;9.006;2023-02-08T08:48:32;-0.20;75.80
9466;DHT22;4771;48.726;9.006;2023-02-08T08:50:58;-0.10;72.90
9466;DHT22;4771;48.726;9.006;2023-02-08T08:53:25;0.10;67.80
9466;DHT22;4771;48.726;9.006;2023-02-08T08:55:52;0.30;65.60
9466;DHT22;4771;48.726;9.006;2023-02-08T08:58:20;0.40;70.10
9466;DHT22;4771;48.726;9.006;2023-02-08T09:00:47;0.50;67.60
9466;DHT22;4771;48.726;9.006;2023-02-08T09:03:14;0.60;67.90
9466;DHT22;4771;48.726;9.006;2023-02-08T09:05:41;0.90;64.40
9466;DHT22;4771;48.726;9.006;2023-02-08T09:08:08;1.20;65.40
9466;DHT22;4771;48.726;9.006;2023-02-08T09:10:35;1.30;61.90
9466;DHT22;4771;48.726;9.006;2023-02-08T09:13:01;1.30;60.80
9466;DHT22;4771;48.726;9.006;2023-02-08T09:15:30;1.30;59.80
9466;DHT22;4771;48.726;9.006;2023-02-08T09:17:56;1.40;60.10
9466;DHT22;4771;48.726;9.006;2023-02-08T09:20:23;1.40;58.50
9466;DHT22;4771;48.726;9.006;2023-02-08T09:22:50;2.60;59.30
9466;DHT22;4771;48.726;9.006;2023-02-08T09:25:18;1.80;57.00
9466;DHT22;4771;48.726;9.006;2023-02-08T09:27:44;1.70;57.90
9466;DHT22;4771;48.726;9.006;2023-02-08T09:30:12;1.70;57.40
9466;DHT22;4771;48.726;9.006;2023-02-08T09:32:40;1.70;56.70
9466;DHT22;4771;48.726;9.006;2023-02-08T09:35:07;1.90;57.80
9466;DHT22;4771;48.726;9.006;2023-02-08T09:37:34;1.80;55.10
9466;DHT22;4771;48.726;9.006;2023-02-08T09:40:01;1.90;54.20
9466;DHT22;4771;48.726;9.006;2023-02-08T09:42:34;2.10;55.50
9466;DHT22;4771;48.726;9.006;2023-02-08T09:45:22;2.10;55.00
9466;DHT22;4771;48.726;9.006;2023-02-08T09:47:56;2.50;54.10
9466;DHT22;4771;48.726;9.006;2023-02-08T09:50:30;2.20;52.00
9466;DHT22;4771;48.726;9.006;2023-02-08T09:53:03;2.30;53.10
9466;DHT22;4771;48.726;9.006;2023-02-08T09:55:36;2.50;51.90
9466;DHT22;4771;48.726;9.006;2023-02-08T09:58:11;2.60;50.80
9466;DHT22;4771;48.726;9.006;2023-02-08T10:00:44;2.80;52.10
9466;DHT22;4771;48.726;9.006;2023-02-08T10:03:26;2.90;51.20
9466;DHT22;4771;48.726;9.006;2023-02-08T10:05:54;2.90;50.20
9466;DHT22;4771;48.726;9.006;2023-02-08T10:08:22;3.10;52.20
9466;DHT22;4771;48.726;9.006;2023-02-08T10:10:52;3.10;50.30
9466;DHT22;4771;48.726;9.006;2023-02-08T10:13:32;3.90;50.90
9466;DHT22;4771;48.726;9.006;2023-02-08T10:16:07;3.30;49.70
9466;DHT22;4771;48.726;9.006;2023-02-08T10:18:45;3.40;47.00
9466;DHT22;4771;48.726;9.006;2023-02-08T10:21:30;3.30;49.60
9466;DHT22;4771;48.726;9.006;2023-02-08T10:24:13;3.40;48.60
9466;DHT22;4771;48.726;9.006;2023-02-08T10:26:44;3.50;47.10
9466;DHT22;4771;48.726;9.006;2023-02-08T10:29:37;3.70;47.10
9466;DHT22;4771;48.726;9.006;2023-02-08T10:32:19;3.70;47.60
9466;DHT22;4771;48.726;9.006;2023-02-08T10:34:53;5.00;48.50
9466;DHT22;4771;48.726;9.006;2023-02-08T10:37:27;3.90;46.10
9466;DHT22;4771;48.726;9.006;2023-02-08T10:39:56;4.00;46.10
9466;DHT22;4771;48.726;9.006;2023-02-08T10:42:27;4.20;45.10
9466;DHT22;4771;48.726;9.006;2023-02-08T10:45:06;4.00;42.70
9466;DHT22;4771;48.726;9.006;2023-02-08T10:47:43;4.10;43.60
9466;DHT22;4771;48.726;9.006;2023-02-08T10:50:19;4.30;43.10
9466;DHT22;4771;48.726;9.006;2023-02-08T10:52:48;4.30;44.50
9466;DHT22;4771;48.726;9.006;2023-02-08T10:55:17;4.40;43.30
9466;DHT22;4771;48.726;9.006;2023-02-08T10:57:45;4.40;44.00
9466;DHT22;4771;48.726;9.006;2023-02-08T11:00:18;4.60;43.80
9466;DHT22;4771;48.726;9.006;2023-02-08T11:02:45;4.40;43.40
9466;DHT22;4771;48.726;9.006;2023-02-08T11:05:17;3.70;41.40
9466;DHT22;4771;48.726;9.006;2023-02-08T11:07:44;4.30;44.20
9466;DHT22;4771;48.726;9.006;2023-02-08T11:10:21;4.40;44.80
9466;DHT22;4771;48.726;9.006;2023-02-08T11:12:57;4.60;44.00
9466;DHT22;4771;48.726;9.006;2023-02-08T11:15:26;4.70;45.30
9466;DHT22;4771;48.726;9.006;2023-02-08T11:17:57;4.80;45.80
9466;DHT22;4771;48.726;9.006;2023-02-08T11:20:32;4.90;44.30
9466;DHT22;4771;48.726;9.006;2023-02-08T11:23:01;5.10;45.20
9466;DHT22;4771;48.726;9.006;2023-02-08T11:25:37;5.20;43.10
9466;DHT22;4771;48.726;9.006;2023-02-08T11:28:07;5.30;43.80
9466;DHT22;4771;48.726;9.006;2023-02-08T11:30:54;5.30;43.60
9466;DHT22;4771;48.726;9.006;2023-02-08T11:33:21;5.40;43.70
9466;DHT22;4771;48.726;9.006;2023-02-08T11:35:59;5.50;42.60
9466;DHT22;4771;48.726;9.006;2023-02-08T11:38:27;5.70;42.50
9466;DHT22;4771;48.726;9.006;2023-02-08T11:40:56;5.60;41.80
9466;DHT22;4771;48.726;9.006;2023-02-08T11:43:26;5.60;41.90
9466;DHT22;4771;48.726;9.006;2023-02-08T11:45:55;5.70;42.50
9466;DHT22;4771;48.726;9.006;2023-02-08T11:48:25;5.90;41.70
9466;DHT22;4771;48.726;9.006;2023-02-08T11:50:58;5.80;41.00
9466;DHT22;4771;48.726;9.006;2023-02-08T11:53:29;6.00;42.10
9466;DHT22;4771;48.726;9.006;2023-02-08T11:56:03;6.10;42.10
9466;DHT22;4771;48.726;9.006;2023-02-08T11:58:31;6.10;39.80
9466;DHT22;4771;48.726;9.006;2023-02-08T12:01:00;6.10;40.00
9466;DHT22;4771;48.726;9.006;2023-02-08T12:03:29;6.10;39.80
9466;DHT22;4771;48.726;9.006;2023-02-08T12:06:12;6.10;38.40
9466;DHT22;4771;48.726;9.006;2023-02-08T12:08:44;7.10;39.70
9466;DHT22;4771;48.726;9.006;2023-02-08T12:11:18;6.30;38.00
9466;DHT22;4771;48.726;9.006;2023-02-08T12:13:58;6.30;36.10
9466;DHT22;4771;48.726;9.006;2023-02-08T12:19:31;6.30;35.90
9466;DHT22;4771;48.726;9.006;2023-02-08T12:22:05;6.30;36.50
9466;DHT22;4771;48.726;9.006;2023-02-08T12:24:38;6.20;36.40
9466;DHT22;4771;48.726;9.006;2023-02-08T12:27:15;6.20;37.10
9466;DHT22;4771;48.726;9.006;2023-02-08T12:29:47;6.60;37.30
9466;DHT22;4771;48.726;9.006;2023-02-08T12:35:36;6.40;37.70
9466;DHT22;4771;48.726;9.006;2023-02-08T12:38:11;6.30;38.40
9466;DHT22;4771;48.726;9.006;2023-02-08T12:41:09;6.30;36.80
9466;DHT22;4771;48.726;9.006;2023-02-08T12:43:49;6.30;36.70
9466;DHT22;4771;48.726;9.006;2023-02-08T12:46:25;6.30;37.00
9466;DHT22;4771;48.726;9.006;2023-02-08T12:49:06;6.10;35.50
9466;DHT22;4771;48.726;9.006;2023-02-08T12:51:41;6.20;36.80
9466;DHT22;4771;48.726;9.006;2023-02-08T12:54:15;6.20;35.50
9466;DHT22;4771;48.726;9.006;2023-02-08T12:56:45;5.90;35.50
9466;DHT22;4771;48.726;9.006;2023-02-08T12:59:25;5.90;36.00
9466;DHT22;4771;48.726;9.006;2023-02-08T13:01:58;5.90;35.80
9466;DHT22;4771;48.726;9.006;2023-02-08T13:04:32;5.80;36.50
9466;DHT22;4771;48.726;9.006;2023-02-08T13:07:09;5.90;35.90
9466;DHT22;4771;48.726;9.006;2023-02-08T13:09:43;5.90;36.40
9466;DHT22;4771;48.726;9.006;2023-02-08T13:12:14;5.70;35.80
9466;DHT22;4771;48.726;9.006;2023-02-08T13:14:45;5.70;36.50
9466;DHT22;4771;48.726;9.006;2023-02-08T13:17:17;5.50;36.80
9466;DHT22;4771;48.726;9.006;2023-02-08T13:19:53;5.40;36.70
9466;DHT22;4771;48.726;9.006;2023-02-08T13:22:21;5.40;37.90
9466;DHT22;4771;48.726;9.006;2023-02-08T13:24:51;5.30;37.50
9466;DHT22;4771;48.726;9.006;2023-02-08T13:27:20;5.20;37.70
9466;DHT22;4771;48.726;9.006;2023-02-08T13:29:49;5.20;38.60
9466;DHT22;4771;48.726;9.006;2023-02-08T13:32:20;5.20;37.50
9466;DHT22;4771;48.726;9.006;2023-02-08T13:34:57;5.10;37.70
9466;DHT22;4771;48.726;9.006;2023-02-08T13:37:27;5.10;37.90
9466;DHT22;4771;48.726;9.006;2023-02-08T13:40:02;5.10;37.80
9466;DHT22;4771;48.726;9.006;2023-02-08T13:42:33;5.10;37.80
9466;DHT22;4771;48.726;9.006;2023-02-08T13:45:03;5.00;38.50
9466;DHT22;4771;48.726;9.006;2023-02-08T13:47:33;5.00;38.60
9466;DHT22;4771;48.726;9.006;2023-02-08T13:50:03;5.00;39.70
9466;DHT22;4771;48.726;9.006;2023-02-08T13:52:52;5.00;39.80
9466;DHT22;4771;48.726;9.006;2023-02-08T14:01:27;5.20;39.60
9466;DHT22;4771;48.726;9.006;2023-02-08T14:04:15;5.20;39.20
9466;DHT22;4771;48.726;9.006;2023-02-08T14:06:45;5.20;39.70
9466;DHT22;4771;48.726;9.006;2023-02-08T14:09:20;5.40;40.20
9466;DHT22;4771;48.726;9.006;2023-02-08T14:11:55;5.30;38.90
9466;DHT22;4771;48.726;9.006;2023-02-08T14:14:27;5.30;39.10
9466;DHT22;4771;48.726;9.006;2023-02-08T14:17:18;5.30;40.00
9466;DHT22;4771;48.726;9.006;2023-02-08T14:19:55;5.20;39.90
9466;DHT22;4771;48.726;9.006;2023-02-08T14:22:23;5.10;40.00
9466;DHT22;4771;48.726;9.006;2023-02-08T14:25:00;5.30;40.50
9466;DHT22;4771;48.726;9.006;2023-02-08T14:27:33;5.20;41.20
9466;DHT22;4771;48.726;9.006;2023-02-08T14:30:04;5.10;40.80
9466;DHT22;4771;48.726;9.006;2023-02-08T14:32:33;5.00;41.30
9466;DHT22;4771;48.726;9.006;2023-02-08T14:35:04;5.10;42.40
9466;DHT22;4771;48.726;9.006;2023-02-08T14:37:33;5.00;42.20
9466;DHT22;4771;48.726;9.006;2023-02-08T14:40:32;5.10;42.70
9466;DHT22;4771;48.726;9.006;2023-02-08T14:43:03;4.90;42.50
9466;DHT22;4771;48.726;9.006;2023-02-08T14:45:32;4.90;43.00
9466;DHT22;4771;48.726;9.006;2023-02-08T14:48:19;4.80;43.30
9466;DHT22;4771;48.726;9.006;2023-02-08T14:50:58;4.90;43.80
9466;DHT22;4771;48.726;9.006;2023-02-08T14:53:41;4.80;44.20
9466;DHT22;4771;48.726;9.006;2023-02-08T14:56:15;4.20;43.70
9466;DHT22;4771;48.726;9.006;2023-02-08T14:58:48;4.60;44.70
9466;DHT22;4771;48.726;9.006;2023-02-08T15:01:19;4.50;44.90
9466;DHT22;4771;48.726;9.006;2023-02-08T15:03:47;4.40;45.10
9466;DHT22;4771;48.726;9.006;2023-02-08T15:06:43;3.70;45.40
9466;DHT22;4771;48.726;9.006;2023-02-08T15:09:17;4.20;45.70
9466;DHT22;4771;48.726;9.006;2023-02-08T15:11:56;4.20;46.10
9466;DHT22;4771;48.726;9.006;2023-02-08T15:14:26;4.10;46.20
9466;DHT22;4771;48.726;9.006;2023-02-08T15:16:53;4.10;47.20
9466;DHT22;4771;48.726;9.006;2023-02-08T15:19:25;4.10;47.60
9466;DHT22;4771;48.726;9.006;2023-02-08T15:21:52;4.10;47.70
9466;DHT22;4771;48.726;9.006;2023-02-08T15:24:21;4.00;48.20
9466;DHT22;4771;48.726;9.006;2023-02-08T15:26:50;4.00;48.20
9466;DHT22;4771;48.726;9.006;2023-02-08T15:29:19;4.00;48.60
9466;DHT22;4771;48.726;9.006;2023-02-08T15:31:48;3.90;48.60
9466;DHT22;4771;48.726;9.006;2023-02-08T15:34:16;3.70;48.90
9466;DHT22;4771;48.726;9.006;2023-02-08T15:36:46;3.70;49.70
9466;DHT22;4771;48.726;9.006;2023-02-08T15:39:24;3.60;49.90
9466;DHT22;4771;48.726;9.006;2023-02-08T15:41:55;3.50;50.30
9466;DHT22;4771;48.726;9.006;2023-02-08T15:44:24;3.50;50.90
9466;DHT22;4771;48.726;9.006;2023-02-08T15:46:56;3.30;50.30
9466;DHT22;4771;48.726;9.006;2023-02-08T15:49:29;3.30;51.00
9466;DHT22;4771;48.726;9.006;2023-02-08T15:52:00;3.20;51.30
9466;DHT22;4771;48.726;9.006;2023-02-08T15:54:27;3.10;51.30
9466;DHT22;4771;48.726;9.006;2023-02-08T15:56:55;3.10;51.30
9466;DHT22;4771;48.726;9.006;2023-02-08T15:59:25;3.00;51.60
9466;DHT22;4771;48.726;9.006;2023-02-08T16:01:56;3.00;52.10
9466;DHT22;4771;48.726;9.006;2023-02-08T16:04:24;3.00;52.60
9466;DHT22;4771;48.726;9.006;2023-02-08T16:06:53;2.80;52.00
9466;DHT22;4771;48.726;9.006;2023-02-08T16:09:22;2.80;52.90
9466;DHT22;4771;48.726;9.006;2023-02-08T16:11:52;2.70;52.20
9466;DHT22;4771;48.726;9.006;2023-02-08T16:14:22;2.70;52.40
9466;DHT22;4771;48.726;9.006;2023-02-08T16:16:51;2.60;52.80
9466;DHT22;4771;48.726;9.006;2023-02-08T16:19:23;2.60;52.60
9466;DHT22;4771;48.726;9.006;2023-02-08T16:21:50;2.50;53.30
9466;DHT22;4771;48.726;9.006;2023-02-08T16:24:23;2.50;53.70
9466;DHT22;4771;48.726;9.006;2023-02-08T16:26:56;2.40;53.50
9466;DHT22;4771;48.726;9.006;2023-02-08T16:29:25;2.40;53.20
9466;DHT22;4771;48.726;9.006;2023-02-08T16:31:59;2.40;53.60
9466;DHT22;4771;48.726;9.006;2023-02-08T16:34:30;2.30;54.10
9466;DHT22;4771;48.726;9.006;2023-02-08T16:36:59;2.20;54.00
9466;DHT22;4771;48.726;9.006;2023-02-08T16:39:50;2.20;53.70
9466;DHT22;4771;48.726;9.006;2023-02-08T16:42:24;2.20;53.90
9466;DHT22;4771;48.726;9.006;2023-02-08T16:45:13;2.10;54.00
9466;DHT22;4771;48.726;9.006;2023-02-08T16:47:41;2.10;54.70
9466;DHT22;4771;48.726;9.006;2023-02-08T16:50:12;2.00;54.70
9466;DHT22;4771;48.726;9.006;2023-02-08T16:52:40;2.00;55.00